sensor_id;sensor_type;location;lat;lon;timestamp;P1;durP1;ratioP1;P2;durP2;ratioP2
28756;SDS011;44294;48.282;14.282;2022-10-26T00:00:44;8.87;;;4.20;;
28756;SDS011;44294;48.282;14.282;2022-10-26T00:03:32;8.37;;;4.13;;
28756;SDS011;44294;48.282;14.282;2022-10-26T00:06:20;7.13;;;4.03;;
28756;SDS011;44294;48.282;14.282;2022-10-26T00:09:09;8.53;;;4.00;;
28756;SDS011;44294;48.282;14.282;2022-10-26T00:11:56;8.67;;;4.50;;
28756;SDS011;44294;48.282;14.282;2022-10-26T00:14:44;8.33;;;4.37;;
28756;SDS011;44294;48.282;14.282;2022-10-26T00:17:31;9.03;;;4.23;;
28756;SDS011;44294;48.282;14.282;2022-10-26T00:20:18;6.13;;;4.07;;
28756;SDS011;44294;48.282;14.282;2022-10-26T00:23:06;10.30;;;4.53;;
28756;SDS011;44294;48.282;14.282;2022-10-26T00:25:56;8.83;;;4.50;;
28756;SDS011;44294;48.282;14.282;2022-10-26T00:28:44;11.83;;;4.60;;
28756;SDS011;44294;48.282;14.282;2022-10-26T00:31:31;7.43;;;4.50;;
28756;SDS011;44294;48.282;14.282;2022-10-26T00:34:18;8.43;;;4.27;;
28756;SDS011;44294;48.282;14.282;2022-10-26T00:37:05;7.83;;;4.33;;
28756;SDS011;44294;48.282;14.282;2022-10-26T00:39:53;9.47;;;4.83;;
28756;SDS011;44294;48.282;14.282;2022-10-26T00:42:40;8.60;;;4.77;;
28756;SDS011;44294;48.282;14.282;2022-10-26T00:45:28;8.80;;;4.63;;
28756;SDS011;44294;48.282;14.282;2022-10-26T00:48:21;9.87;;;4.77;;
28756;SDS011;44294;48.282;14.282;2022-10-26T00:51:12;7.80;;;4.33;;
28756;SDS011;44294;48.282;14.282;2022-10-26T00:54:05;6.40;;;4.50;;
28756;SDS011;44294;48.282;14.282;2022-10-26T00:56:48;7.50;;;4.40;;
28756;SDS011;44294;48.282;14.282;2022-10-26T00:59:36;5.77;;;4.30;;
28756;SDS011;44294;48.282;14.282;2022-10-26T01:02:25;8.30;;;4.37;;
28756;SDS011;44294;48.282;14.282;2022-10-26T01:05:12;9.17;;;4.07;;
28756;SDS011;44294;48.282;14.282;2022-10-26T01:08:00;10.03;;;4.17;;
28756;SDS011;44294;48.282;14.282;2022-10-26T01:10:48;8.87;;;3.80;;
28756;SDS011;44294;48.282;14.282;2022-10-26T01:13:35;8.47;;;3.80;;
28756;SDS011;44294;48.282;14.282;2022-10-26T01:22:32;8.77;;;3.57;;
28756;SDS011;44294;48.282;14.282;2022-10-26T01:28:25;5.30;;;3.83;;
28756;SDS011;44294;48.282;14.282;2022-10-26T01:31:05;6.93;;;3.90;;
28756;SDS011;44294;48.282;14.282;2022-10-26T01:33:56;6.57;;;3.70;;
28756;SDS011;44294;48.282;14.282;2022-10-26T01:36:48;4.93;;;3.30;;
28756;SDS011;44294;48.282;14.282;2022-10-26T01:39:40;4.97;;;3.37;;
28756;SDS011;44294;48.282;14.282;2022-10-26T01:42:23;6.90;;;3.47;;
28756;SDS011;44294;48.282;14.282;2022-10-26T01:45:12;5.27;;;3.60;;
28756;SDS011;44294;48.282;14.282;2022-10-26T01:48:01;7.17;;;3.57;;
28756;SDS011;44294;48.282;14.282;2022-10-26T01:50:50;6.03;;;3.60;;
28756;SDS011;44294;48.282;14.282;2022-10-26T01:53:43;5.43;;;3.43;;
28756;SDS011;44294;48.282;14.282;2022-10-26T01:56:30;7.87;;;3.67;;
28756;SDS011;44294;48.282;14.282;2022-10-26T01:59:21;6.13;;;3.47;;
28756;SDS011;44294;48.282;14.282;2022-10-26T02:02:13;5.17;;;3.40;;
28756;SDS011;44294;48.282;14.282;2022-10-26T02:07:51;9.67;;;3.60;;
28756;SDS011;44294;48.282;14.282;2022-10-26T02:10:43;6.93;;;3.93;;
28756;SDS011;44294;48.282;14.282;2022-10-26T02:13:32;5.83;;;3.73;;
28756;SDS011;44294;48.282;14.282;2022-10-26T02:16:23;6.67;;;3.70;;
28756;SDS011;44294;48.282;14.282;2022-10-26T02:22:15;9.67;;;3.90;;
28756;SDS011;44294;48.282;14.282;2022-10-26T02:25:10;5.03;;;3.47;;
28756;SDS011;44294;48.282;14.282;2022-10-26T02:27:58;5.83;;;3.80;;
28756;SDS011;44294;48.282;14.282;2022-10-26T02:30:46;5.10;;;3.87;;
28756;SDS011;44294;48.282;14.282;2022-10-26T02:33:36;5.90;;;3.83;;
28756;SDS011;44294;48.282;14.282;2022-10-26T02:36:24;6.83;;;3.70;;
28756;SDS011;44294;48.282;14.282;2022-10-26T02:39:12;5.90;;;3.47;;
28756;SDS011;44294;48.282;14.282;2022-10-26T02:42:02;5.97;;;3.40;;
28756;SDS011;44294;48.282;14.282;2022-10-26T02:44:50;8.77;;;3.80;;
28756;SDS011;44294;48.282;14.282;2022-10-26T02:47:39;12.87;;;3.83;;
28756;SDS011;44294;48.282;14.282;2022-10-26T02:50:31;4.77;;;3.40;;
28756;SDS011;44294;48.282;14.282;2022-10-26T02:53:17;6.63;;;3.30;;
28756;SDS011;44294;48.282;14.282;2022-10-26T02:56:10;4.50;;;3.30;;
28756;SDS011;44294;48.282;14.282;2022-10-26T02:58:55;3.60;;;3.30;;
28756;SDS011;44294;48.282;14.282;2022-10-26T03:01:42;4.10;;;3.20;;
28756;SDS011;44294;48.282;14.282;2022-10-26T03:04:31;4.77;;;3.33;;
28756;SDS011;44294;48.282;14.282;2022-10-26T03:07:19;4.60;;;3.20;;
28756;SDS011;44294;48.282;14.282;2022-10-26T03:10:07;4.80;;;3.23;;
28756;SDS011;44294;48.282;14.282;2022-10-26T03:12:55;6.50;;;3.40;;
28756;SDS011;44294;48.282;14.282;2022-10-26T03:15:42;7.57;;;3.50;;
28756;SDS011;44294;48.282;14.282;2022-10-26T03:18:29;4.97;;;3.00;;
28756;SDS011;44294;48.282;14.282;2022-10-26T03:21:16;6.43;;;3.20;;
28756;SDS011;44294;48.282;14.282;2022-10-26T03:24:04;4.23;;;3.10;;
28756;SDS011;44294;48.282;14.282;2022-10-26T03:26:51;5.50;;;3.30;;
28756;SDS011;44294;48.282;14.282;2022-10-26T03:29:39;5.13;;;3.43;;
28756;SDS011;44294;48.282;14.282;2022-10-26T03:32:26;7.80;;;3.10;;
28756;SDS011;44294;48.282;14.282;2022-10-26T03:35:13;5.83;;;3.27;;
28756;SDS011;44294;48.282;14.282;2022-10-26T03:38:01;5.67;;;3.50;;
28756;SDS011;44294;48.282;14.282;2022-10-26T03:40:48;5.97;;;3.40;;
28756;SDS011;44294;48.282;14.282;2022-10-26T03:43:35;5.20;;;3.40;;
28756;SDS011;44294;48.282;14.282;2022-10-26T03:46:23;5.53;;;3.67;;
28756;SDS011;44294;48.282;14.282;2022-10-26T03:49:10;3.90;;;3.40;;
28756;SDS011;44294;48.282;14.282;2022-10-26T03:51:57;3.90;;;3.50;;
28756;SDS011;44294;48.282;14.282;2022-10-26T03:54:44;5.27;;;3.87;;
28756;SDS011;44294;48.282;14.282;2022-10-26T03:57:32;6.33;;;4.23;;
28756;SDS011;44294;48.282;14.282;2022-10-26T04:00:19;6.90;;;3.70;;
28756;SDS011;44294;48.282;14.282;2022-10-26T04:03:07;8.33;;;4.30;;
28756;SDS011;44294;48.282;14.282;2022-10-26T04:05:54;7.50;;;4.03;;
28756;SDS011;44294;48.282;14.282;2022-10-26T04:08:43;6.77;;;4.07;;
28756;SDS011;44294;48.282;14.282;2022-10-26T04:11:30;4.83;;;3.90;;
28756;SDS011;44294;48.282;14.282;2022-10-26T04:14:18;6.30;;;3.73;;
28756;SDS011;44294;48.282;14.282;2022-10-26T04:17:05;6.87;;;4.17;;
28756;SDS011;44294;48.282;14.282;2022-10-26T04:19:52;6.80;;;4.53;;
28756;SDS011;44294;48.282;14.282;2022-10-26T04:22:40;7.10;;;4.97;;
28756;SDS011;44294;48.282;14.282;2022-10-26T04:25:27;8.10;;;5.00;;
28756;SDS011;44294;48.282;14.282;2022-10-26T04:28:15;8.20;;;4.53;;
28756;SDS011;44294;48.282;14.282;2022-10-26T04:31:02;7.83;;;4.67;;
28756;SDS011;44294;48.282;14.282;2022-10-26T04:33:50;7.57;;;4.10;;
28756;SDS011;44294;48.282;14.282;2022-10-26T04:36:37;8.87;;;3.93;;
28756;SDS011;44294;48.282;14.282;2022-10-26T04:39:24;8.70;;;4.03;;
28756;SDS011;44294;48.282;14.282;2022-10-26T04:42:12;6.67;;;4.10;;
28756;SDS011;44294;48.282;14.282;2022-10-26T04:44:59;7.17;;;3.87;;
28756;SDS011;44294;48.282;14.282;2022-10-26T04:47:46;7.47;;;4.13;;
28756;SDS011;44294;48.282;14.282;2022-10-26T04:50:34;6.67;;;4.50;;
28756;SDS011;44294;48.282;14.282;2022-10-26T04:53:21;8.53;;;5.90;;
28756;SDS011;44294;48.282;14.282;2022-10-26T04:56:09;10.40;;;6.40;;
28756;SDS011;44294;48.282;14.282;2022-10-26T04:58:56;12.67;;;7.03;;
28756;SDS011;44294;48.282;14.282;2022-10-26T05:01:43;10.23;;;5.33;;
28756;SDS011;44294;48.282;14.282;2022-10-26T05:04:31;10.03;;;4.60;;
28756;SDS011;44294;48.282;14.282;2022-10-26T05:07:18;6.10;;;4.90;;
28756;SDS011;44294;48.282;14.282;2022-10-26T05:10:06;12.77;;;5.33;;
28756;SDS011;44294;48.282;14.282;2022-10-26T05:12:54;12.13;;;5.83;;
28756;SDS011;44294;48.282;14.282;2022-10-26T05:15:42;9.00;;;5.07;;
28756;SDS011;44294;48.282;14.282;2022-10-26T05:18:29;9.63;;;5.13;;
28756;SDS011;44294;48.282;14.282;2022-10-26T05:21:16;6.37;;;4.77;;
28756;SDS011;44294;48.282;14.282;2022-10-26T05:24:06;11.10;;;6.80;;
28756;SDS011;44294;48.282;14.282;2022-10-26T05:26:53;12.23;;;7.77;;
28756;SDS011;44294;48.282;14.282;2022-10-26T05:29:41;12.70;;;7.43;;
28756;SDS011;44294;48.282;14.282;2022-10-26T05:32:28;11.70;;;5.70;;
28756;SDS011;44294;48.282;14.282;2022-10-26T05:35:15;12.37;;;5.07;;
28756;SDS011;44294;48.282;14.282;2022-10-26T05:38:09;7.13;;;4.23;;
28756;SDS011;44294;48.282;14.282;2022-10-26T05:40:55;6.33;;;4.30;;
28756;SDS011;44294;48.282;14.282;2022-10-26T05:43:42;4.80;;;3.83;;
28756;SDS011;44294;48.282;14.282;2022-10-26T05:46:29;5.50;;;3.80;;
28756;SDS011;44294;48.282;14.282;2022-10-26T05:49:17;6.23;;;4.00;;
28756;SDS011;44294;48.282;14.282;2022-10-26T05:52:04;5.17;;;3.83;;
28756;SDS011;44294;48.282;14.282;2022-10-26T05:54:51;5.63;;;3.90;;
28756;SDS011;44294;48.282;14.282;2022-10-26T05:57:39;4.87;;;3.80;;
28756;SDS011;44294;48.282;14.282;2022-10-26T06:00:26;8.07;;;5.07;;
28756;SDS011;44294;48.282;14.282;2022-10-26T06:06:21;13.30;;;7.17;;
28756;SDS011;44294;48.282;14.282;2022-10-26T06:09:14;11.10;;;6.90;;
28756;SDS011;44294;48.282;14.282;2022-10-26T06:11:58;12.70;;;7.13;;
28756;SDS011;44294;48.282;14.282;2022-10-26T06:14:47;12.90;;;7.97;;
28756;SDS011;44294;48.282;14.282;2022-10-26T06:17:36;10.93;;;6.90;;
28756;SDS011;44294;48.282;14.282;2022-10-26T06:20:42;11.50;;;6.53;;
28756;SDS011;44294;48.282;14.282;2022-10-26T06:29:31;8.47;;;5.40;;
28756;SDS011;44294;48.282;14.282;2022-10-26T06:32:11;11.63;;;5.50;;
28756;SDS011;44294;48.282;14.282;2022-10-26T06:38:04;9.17;;;5.67;;
28756;SDS011;44294;48.282;14.282;2022-10-26T06:40:54;9.30;;;5.50;;
28756;SDS011;44294;48.282;14.282;2022-10-26T06:43:41;9.57;;;5.40;;
28756;SDS011;44294;48.282;14.282;2022-10-26T06:49:34;10.27;;;5.90;;
28756;SDS011;44294;48.282;14.282;2022-10-26T06:52:26;8.30;;;5.60;;
28756;SDS011;44294;48.282;14.282;2022-10-26T06:55:16;11.80;;;5.90;;
28756;SDS011;44294;48.282;14.282;2022-10-26T06:58:00;9.77;;;5.57;;
28756;SDS011;44294;48.282;14.282;2022-10-26T07:00:49;9.60;;;5.80;;
28756;SDS011;44294;48.282;14.282;2022-10-26T07:03:37;8.00;;;5.70;;
28756;SDS011;44294;48.282;14.282;2022-10-26T07:06:24;10.33;;;6.33;;
28756;SDS011;44294;48.282;14.282;2022-10-26T07:09:11;9.27;;;5.97;;
28756;SDS011;44294;48.282;14.282;2022-10-26T07:11:59;9.07;;;5.67;;
28756;SDS011;44294;48.282;14.282;2022-10-26T07:14:46;8.67;;;5.13;;
28756;SDS011;44294;48.282;14.282;2022-10-26T07:17:43;8.43;;;5.70;;
28756;SDS011;44294;48.282;14.282;2022-10-26T07:20:31;9.17;;;5.60;;
28756;SDS011;44294;48.282;14.282;2022-10-26T07:23:19;7.77;;;5.80;;
28756;SDS011;44294;48.282;14.282;2022-10-26T07:26:08;8.33;;;5.40;;
28756;SDS011;44294;48.282;14.282;2022-10-26T07:28:55;8.40;;;6.00;;
28756;SDS011;44294;48.282;14.282;2022-10-26T07:31:43;11.73;;;6.93;;
28756;SDS011;44294;48.282;14.282;2022-10-26T07:34:30;9.67;;;6.33;;
28756;SDS011;44294;48.282;14.282;2022-10-26T07:37:18;10.60;;;6.43;;
28756;SDS011;44294;48.282;14.282;2022-10-26T07:40:05;9.17;;;6.00;;
28756;SDS011;44294;48.282;14.282;2022-10-26T07:42:55;13.37;;;6.37;;
28756;SDS011;44294;48.282;14.282;2022-10-26T07:45:42;10.80;;;6.03;;
28756;SDS011;44294;48.282;14.282;2022-10-26T07:48:29;8.73;;;6.00;;
28756;SDS011;44294;48.282;14.282;2022-10-26T07:51:16;12.43;;;6.30;;
28756;SDS011;44294;48.282;14.282;2022-10-26T07:54:04;10.67;;;6.53;;
28756;SDS011;44294;48.282;14.282;2022-10-26T07:56:51;13.27;;;8.40;;
28756;SDS011;44294;48.282;14.282;2022-10-26T07:59:39;12.87;;;8.30;;
28756;SDS011;44294;48.282;14.282;2022-10-26T08:02:26;13.93;;;8.20;;
28756;SDS011;44294;48.282;14.282;2022-10-26T08:05:13;10.97;;;7.47;;
28756;SDS011;44294;48.282;14.282;2022-10-26T08:08:01;9.77;;;6.70;;
28756;SDS011;44294;48.282;14.282;2022-10-26T08:10:48;14.77;;;7.83;;
28756;SDS011;44294;48.282;14.282;2022-10-26T08:13:36;12.50;;;8.10;;
28756;SDS011;44294;48.282;14.282;2022-10-26T08:16:23;11.37;;;7.40;;
28756;SDS011;44294;48.282;14.282;2022-10-26T08:19:11;12.23;;;8.03;;
28756;SDS011;44294;48.282;14.282;2022-10-26T08:21:58;9.83;;;7.10;;
28756;SDS011;44294;48.282;14.282;2022-10-26T08:24:45;10.90;;;7.70;;
28756;SDS011;44294;48.282;14.282;2022-10-26T08:27:32;9.50;;;6.73;;
28756;SDS011;44294;48.282;14.282;2022-10-26T08:30:20;10.30;;;7.00;;
28756;SDS011;44294;48.282;14.282;2022-10-26T08:33:08;11.20;;;7.60;;
28756;SDS011;44294;48.282;14.282;2022-10-26T08:35:56;10.10;;;7.27;;
28756;SDS011;44294;48.282;14.282;2022-10-26T08:38:45;12.43;;;7.80;;
28756;SDS011;44294;48.282;14.282;2022-10-26T08:41:44;9.77;;;7.30;;
28756;SDS011;44294;48.282;14.282;2022-10-26T08:44:50;12.50;;;8.13;;
28756;SDS011;44294;48.282;14.282;2022-10-26T08:47:34;10.77;;;7.70;;
28756;SDS011;44294;48.282;14.282;2022-10-26T08:50:26;12.13;;;8.10;;
28756;SDS011;44294;48.282;14.282;2022-10-26T08:53:31;12.13;;;8.47;;
28756;SDS011;44294;48.282;14.282;2022-10-26T08:59:18;14.47;;;8.00;;
28756;SDS011;44294;48.282;14.282;2022-10-26T09:02:01;12.23;;;7.10;;
28756;SDS011;44294;48.282;14.282;2022-10-26T09:04:49;12.03;;;7.40;;
28756;SDS011;44294;48.282;14.282;2022-10-26T09:07:57;10.43;;;6.80;;
28756;SDS011;44294;48.282;14.282;2022-10-26T09:10:52;9.60;;;6.47;;
28756;SDS011;44294;48.282;14.282;2022-10-26T09:16:48;8.97;;;6.70;;
28756;SDS011;44294;48.282;14.282;2022-10-26T09:25:28;10.67;;;6.63;;
28756;SDS011;44294;48.282;14.282;2022-10-26T09:28:16;8.90;;;6.60;;
28756;SDS011;44294;48.282;14.282;2022-10-26T09:31:04;12.60;;;6.63;;
28756;SDS011;44294;48.282;14.282;2022-10-26T09:33:52;9.83;;;6.70;;
28756;SDS011;44294;48.282;14.282;2022-10-26T09:36:40;10.37;;;7.50;;
28756;SDS011;44294;48.282;14.282;2022-10-26T09:42:29;13.30;;;8.03;;
28756;SDS011;44294;48.282;14.282;2022-10-26T09:45:16;17.87;;;9.60;;
28756;SDS011;44294;48.282;14.282;2022-10-26T09:48:04;12.80;;;8.30;;
28756;SDS011;44294;48.282;14.282;2022-10-26T09:50:52;14.63;;;8.60;;
28756;SDS011;44294;48.282;14.282;2022-10-26T09:53:39;14.40;;;8.73;;
28756;SDS011;44294;48.282;14.282;2022-10-26T09:56:26;15.60;;;8.93;;
28756;SDS011;44294;48.282;14.282;2022-10-26T09:59:14;16.40;;;9.40;;
28756;SDS011;44294;48.282;14.282;2022-10-26T10:05:23;20.17;;;9.70;;
28756;SDS011;44294;48.282;14.282;2022-10-26T10:08:23;15.70;;;9.27;;
28756;SDS011;44294;48.282;14.282;2022-10-26T10:11:11;15.53;;;9.33;;
28756;SDS011;44294;48.282;14.282;2022-10-26T10:13:59;15.57;;;9.53;;
28756;SDS011;44294;48.282;14.282;2022-10-26T10:16:53;17.43;;;10.17;;
28756;SDS011;44294;48.282;14.282;2022-10-26T10:19:37;20.30;;;11.27;;
28756;SDS011;44294;48.282;14.282;2022-10-26T10:22:24;21.60;;;11.43;;
28756;SDS011;44294;48.282;14.282;2022-10-26T10:25:21;22.00;;;12.50;;
28756;SDS011;44294;48.282;14.282;2022-10-26T10:28:02;22.07;;;12.23;;
28756;SDS011;44294;48.282;14.282;2022-10-26T10:30:52;25.30;;;15.80;;
28756;SDS011;44294;48.282;14.282;2022-10-26T10:33:42;26.27;;;13.97;;
28756;SDS011;44294;48.282;14.282;2022-10-26T10:36:31;25.97;;;16.60;;
28756;SDS011;44294;48.282;14.282;2022-10-26T10:39:38;27.67;;;16.53;;
28756;SDS011;44294;48.282;14.282;2022-10-26T10:42:29;30.83;;;16.97;;
28756;SDS011;44294;48.282;14.282;2022-10-26T10:45:19;29.27;;;16.60;;
28756;SDS011;44294;48.282;14.282;2022-10-26T10:48:19;29.17;;;16.37;;
28756;SDS011;44294;48.282;14.282;2022-10-26T10:51:07;28.13;;;15.93;;
28756;SDS011;44294;48.282;14.282;2022-10-26T10:53:56;27.50;;;15.07;;
28756;SDS011;44294;48.282;14.282;2022-10-26T10:56:48;28.50;;;15.00;;
28756;SDS011;44294;48.282;14.282;2022-10-26T11:11:02;16.50;;;8.77;;
28756;SDS011;44294;48.282;14.282;2022-10-26T11:14:08;13.30;;;7.70;;
28756;SDS011;44294;48.282;14.282;2022-10-26T11:16:58;9.33;;;6.13;;
28756;SDS011;44294;48.282;14.282;2022-10-26T11:22:39;9.27;;;5.43;;
28756;SDS011;44294;48.282;14.282;2022-10-26T11:25:28;9.47;;;5.83;;
28756;SDS011;44294;48.282;14.282;2022-10-26T11:28:22;11.10;;;5.70;;
28756;SDS011;44294;48.282;14.282;2022-10-26T11:31:09;11.53;;;5.53;;
28756;SDS011;44294;48.282;14.282;2022-10-26T11:36:56;11.27;;;4.80;;
28756;SDS011;44294;48.282;14.282;2022-10-26T11:39:44;8.70;;;4.33;;
28756;SDS011;44294;48.282;14.282;2022-10-26T11:45:30;8.03;;;4.23;;
28756;SDS011;44294;48.282;14.282;2022-10-26T11:48:19;5.47;;;4.27;;
28756;SDS011;44294;48.282;14.282;2022-10-26T11:51:06;5.57;;;4.00;;
28756;SDS011;44294;48.282;14.282;2022-10-26T11:53:56;6.73;;;4.63;;
28756;SDS011;44294;48.282;14.282;2022-10-26T11:56:45;9.43;;;4.87;;
28756;SDS011;44294;48.282;14.282;2022-10-26T11:59:34;7.17;;;4.10;;
28756;SDS011;44294;48.282;14.282;2022-10-26T12:02:22;8.97;;;4.80;;
28756;SDS011;44294;48.282;14.282;2022-10-26T12:05:16;5.50;;;3.57;;
28756;SDS011;44294;48.282;14.282;2022-10-26T12:08:03;5.93;;;4.20;;
28756;SDS011;44294;48.282;14.282;2022-10-26T12:11:02;5.43;;;3.70;;
28756;SDS011;44294;48.282;14.282;2022-10-26T12:13:56;6.40;;;4.10;;
28756;SDS011;44294;48.282;14.282;2022-10-26T12:22:37;5.17;;;3.30;;
28756;SDS011;44294;48.282;14.282;2022-10-26T12:25:25;4.27;;;3.30;;
28756;SDS011;44294;48.282;14.282;2022-10-26T12:28:37;5.77;;;3.70;;
28756;SDS011;44294;48.282;14.282;2022-10-26T12:31:41;5.10;;;3.40;;
28756;SDS011;44294;48.282;14.282;2022-10-26T12:34:12;5.90;;;3.77;;
28756;SDS011;44294;48.282;14.282;2022-10-26T12:39:50;7.43;;;4.10;;
28756;SDS011;44294;48.282;14.282;2022-10-26T12:42:39;9.27;;;4.07;;
28756;SDS011;44294;48.282;14.282;2022-10-26T12:45:26;7.63;;;4.60;;
28756;SDS011;44294;48.282;14.282;2022-10-26T12:48:47;7.40;;;4.20;;
28756;SDS011;44294;48.282;14.282;2022-10-26T12:51:43;7.23;;;4.17;;
28756;SDS011;44294;48.282;14.282;2022-10-26T12:55:01;8.20;;;3.87;;
28756;SDS011;44294;48.282;14.282;2022-10-26T12:57:23;5.40;;;3.50;;
28756;SDS011;44294;48.282;14.282;2022-10-26T12:59:49;7.17;;;3.50;;
28756;SDS011;44294;48.282;14.282;2022-10-26T13:08:24;6.93;;;4.40;;
28756;SDS011;44294;48.282;14.282;2022-10-26T13:11:18;4.70;;;3.90;;
28756;SDS011;44294;48.282;14.282;2022-10-26T13:14:07;7.60;;;4.20;;
28756;SDS011;44294;48.282;14.282;2022-10-26T13:16:55;5.30;;;3.90;;
28756;SDS011;44294;48.282;14.282;2022-10-26T13:19:46;6.07;;;4.03;;
28756;SDS011;44294;48.282;14.282;2022-10-26T13:22:34;5.17;;;3.80;;
28756;SDS011;44294;48.282;14.282;2022-10-26T13:25:26;6.60;;;4.40;;
28756;SDS011;44294;48.282;14.282;2022-10-26T13:31:23;7.83;;;4.30;;
28756;SDS011;44294;48.282;14.282;2022-10-26T13:34:23;5.37;;;3.83;;
28756;SDS011;44294;48.282;14.282;2022-10-26T13:39:46;4.70;;;3.80;;
28756;SDS011;44294;48.282;14.282;2022-10-26T13:42:40;4.83;;;3.63;;
28756;SDS011;44294;48.282;14.282;2022-10-26T13:45:29;6.70;;;4.20;;
28756;SDS011;44294;48.282;14.282;2022-10-26T13:48:19;5.13;;;4.03;;
28756;SDS011;44294;48.282;14.282;2022-10-26T13:51:12;6.43;;;3.50;;
28756;SDS011;44294;48.282;14.282;2022-10-26T13:54:00;6.37;;;3.93;;
28756;SDS011;44294;48.282;14.282;2022-10-26T13:59:56;7.50;;;3.90;;
28756;SDS011;44294;48.282;14.282;2022-10-26T14:02:44;5.80;;;3.43;;
28756;SDS011;44294;48.282;14.282;2022-10-26T14:05:31;5.37;;;3.67;;
28756;SDS011;44294;48.282;14.282;2022-10-26T14:08:19;7.80;;;3.77;;
28756;SDS011;44294;48.282;14.282;2022-10-26T14:11:06;6.17;;;3.50;;
28756;SDS011;44294;48.282;14.282;2022-10-26T14:13:55;3.87;;;3.20;;
28756;SDS011;44294;48.282;14.282;2022-10-26T14:16:43;4.67;;;3.43;;
28756;SDS011;44294;48.282;14.282;2022-10-26T14:19:32;3.90;;;3.30;;
28756;SDS011;44294;48.282;14.282;2022-10-26T14:22:21;4.07;;;3.30;;
28756;SDS011;44294;48.282;14.282;2022-10-26T14:28:19;6.33;;;3.70;;
28756;SDS011;44294;48.282;14.282;2022-10-26T14:31:19;4.63;;;3.50;;
28756;SDS011;44294;48.282;14.282;2022-10-26T14:33:59;3.90;;;3.30;;
28756;SDS011;44294;48.282;14.282;2022-10-26T14:36:47;4.70;;;3.23;;
28756;SDS011;44294;48.282;14.282;2022-10-26T14:39:36;4.83;;;2.97;;
28756;SDS011;44294;48.282;14.282;2022-10-26T14:48:20;4.90;;;3.20;;
28756;SDS011;44294;48.282;14.282;2022-10-26T14:51:10;6.60;;;3.23;;
28756;SDS011;44294;48.282;14.282;2022-10-26T14:53:58;3.80;;;3.30;;
28756;SDS011;44294;48.282;14.282;2022-10-26T14:56:48;4.97;;;3.20;;
28756;SDS011;44294;48.282;14.282;2022-10-26T14:59:35;5.70;;;3.43;;
28756;SDS011;44294;48.282;14.282;2022-10-26T15:02:23;6.07;;;3.53;;
28756;SDS011;44294;48.282;14.282;2022-10-26T15:05:30;4.87;;;3.30;;
28756;SDS011;44294;48.282;14.282;2022-10-26T15:08:03;5.93;;;3.40;;
28756;SDS011;44294;48.282;14.282;2022-10-26T15:10:50;4.67;;;3.40;;
28756;SDS011;44294;48.282;14.282;2022-10-26T15:13:39;5.13;;;3.60;;
28756;SDS011;44294;48.282;14.282;2022-10-26T15:16:28;6.97;;;3.40;;
28756;SDS011;44294;48.282;14.282;2022-10-26T15:19:15;4.97;;;3.20;;
28756;SDS011;44294;48.282;14.282;2022-10-26T15:22:14;3.90;;;3.23;;
28756;SDS011;44294;48.282;14.282;2022-10-26T15:24:55;5.30;;;3.33;;
28756;SDS011;44294;48.282;14.282;2022-10-26T15:27:43;4.77;;;3.43;;
28756;SDS011;44294;48.282;14.282;2022-10-26T15:30:31;5.87;;;3.53;;
28756;SDS011;44294;48.282;14.282;2022-10-26T15:33:19;5.93;;;3.40;;
28756;SDS011;44294;48.282;14.282;2022-10-26T15:36:13;6.60;;;3.50;;
28756;SDS011;44294;48.282;14.282;2022-10-26T15:39:01;4.63;;;3.30;;
28756;SDS011;44294;48.282;14.282;2022-10-26T15:41:48;5.20;;;3.50;;
28756;SDS011;44294;48.282;14.282;2022-10-26T15:44:37;6.80;;;3.70;;
28756;SDS011;44294;48.282;14.282;2022-10-26T15:47:27;6.87;;;4.00;;
28756;SDS011;44294;48.282;14.282;2022-10-26T15:50:14;4.27;;;3.60;;
28756;SDS011;44294;48.282;14.282;2022-10-26T15:53:04;6.67;;;4.20;;
28756;SDS011;44294;48.282;14.282;2022-10-26T15:55:51;5.47;;;3.73;;
28756;SDS011;44294;48.282;14.282;2022-10-26T15:58:38;5.27;;;3.73;;
28756;SDS011;44294;48.282;14.282;2022-10-26T16:01:27;5.93;;;4.20;;
28756;SDS011;44294;48.282;14.282;2022-10-26T16:04:14;11.13;;;4.70;;
28756;SDS011;44294;48.282;14.282;2022-10-26T16:07:01;6.93;;;4.83;;
28756;SDS011;44294;48.282;14.282;2022-10-26T16:09:50;6.80;;;4.87;;
28756;SDS011;44294;48.282;14.282;2022-10-26T16:12:38;8.50;;;5.60;;
28756;SDS011;44294;48.282;14.282;2022-10-26T16:15:25;8.83;;;5.90;;
28756;SDS011;44294;48.282;14.282;2022-10-26T16:18:13;12.43;;;6.10;;
28756;SDS011;44294;48.282;14.282;2022-10-26T16:21:00;8.43;;;5.93;;
28756;SDS011;44294;48.282;14.282;2022-10-26T16:23:49;8.33;;;5.83;;
28756;SDS011;44294;48.282;14.282;2022-10-26T16:26:36;9.23;;;5.70;;
28756;SDS011;44294;48.282;14.282;2022-10-26T16:29:23;10.83;;;6.10;;
28756;SDS011;44294;48.282;14.282;2022-10-26T16:32:11;10.80;;;6.87;;
28756;SDS011;44294;48.282;14.282;2022-10-26T16:34:58;11.17;;;6.43;;
28756;SDS011;44294;48.282;14.282;2022-10-26T16:37:45;9.83;;;6.37;;
28756;SDS011;44294;48.282;14.282;2022-10-26T16:40:33;10.80;;;6.30;;
28756;SDS011;44294;48.282;14.282;2022-10-26T16:43:20;10.20;;;6.17;;
28756;SDS011;44294;48.282;14.282;2022-10-26T16:46:09;10.00;;;6.23;;
28756;SDS011;44294;48.282;14.282;2022-10-26T16:48:57;10.03;;;6.83;;
28756;SDS011;44294;48.282;14.282;2022-10-26T16:51:45;9.00;;;6.27;;
28756;SDS011;44294;48.282;14.282;2022-10-26T16:54:32;13.40;;;6.83;;
28756;SDS011;44294;48.282;14.282;2022-10-26T16:57:19;13.73;;;7.17;;
28756;SDS011;44294;48.282;14.282;2022-10-26T17:00:07;16.00;;;7.43;;
28756;SDS011;44294;48.282;14.282;2022-10-26T17:02:55;11.70;;;6.80;;
28756;SDS011;44294;48.282;14.282;2022-10-26T17:05:42;12.67;;;7.60;;
28756;SDS011;44294;48.282;14.282;2022-10-26T17:08:30;10.07;;;6.40;;
28756;SDS011;44294;48.282;14.282;2022-10-26T17:11:19;13.43;;;6.63;;
28756;SDS011;44294;48.282;14.282;2022-10-26T17:14:06;11.30;;;6.80;;
28756;SDS011;44294;48.282;14.282;2022-10-26T17:16:54;9.70;;;6.40;;
28756;SDS011;44294;48.282;14.282;2022-10-26T17:19:41;10.40;;;6.60;;
28756;SDS011;44294;48.282;14.282;2022-10-26T17:22:28;13.27;;;7.20;;
28756;SDS011;44294;48.282;14.282;2022-10-26T17:25:16;13.33;;;7.30;;
28756;SDS011;44294;48.282;14.282;2022-10-26T17:28:03;12.00;;;7.97;;
28756;SDS011;44294;48.282;14.282;2022-10-26T17:30:51;16.27;;;8.97;;
28756;SDS011;44294;48.282;14.282;2022-10-26T17:33:39;15.00;;;8.20;;
28756;SDS011;44294;48.282;14.282;2022-10-26T17:36:28;18.23;;;9.17;;
28756;SDS011;44294;48.282;14.282;2022-10-26T17:39:16;14.10;;;8.00;;
28756;SDS011;44294;48.282;14.282;2022-10-26T17:42:04;12.03;;;8.30;;
28756;SDS011;44294;48.282;14.282;2022-10-26T17:44:52;12.93;;;8.30;;
28756;SDS011;44294;48.282;14.282;2022-10-26T17:47:39;14.40;;;9.10;;
28756;SDS011;44294;48.282;14.282;2022-10-26T17:50:26;14.70;;;8.30;;
28756;SDS011;44294;48.282;14.282;2022-10-26T17:53:14;15.97;;;8.47;;
28756;SDS011;44294;48.282;14.282;2022-10-26T17:56:04;13.13;;;8.27;;
28756;SDS011;44294;48.282;14.282;2022-10-26T17:58:57;13.90;;;8.13;;
28756;SDS011;44294;48.282;14.282;2022-10-26T18:01:45;11.30;;;7.90;;
28756;SDS011;44294;48.282;14.282;2022-10-26T18:04:32;14.03;;;8.20;;
28756;SDS011;44294;48.282;14.282;2022-10-26T18:07:19;14.67;;;8.97;;
28756;SDS011;44294;48.282;14.282;2022-10-26T18:10:07;18.73;;;10.00;;
28756;SDS011;44294;48.282;14.282;2022-10-26T18:12:55;14.33;;;9.70;;
28756;SDS011;44294;48.282;14.282;2022-10-26T18:15:42;16.03;;;10.07;;